createdAt,value
2023-04-02T00:01:37.017Z,8.10
2023-04-02T00:04:23.041Z,8.00
2023-04-02T00:07:30.540Z,8.00
2023-04-02T00:10:02.715Z,8.10
2023-04-02T00:12:35.273Z,8.00
2023-04-02T00:15:13.308Z,8.00
2023-04-02T00:17:45.572Z,8.00
2023-04-02T00:20:20.281Z,7.90
2023-04-02T00:22:52.551Z,7.90
2023-04-02T00:25:28.692Z,7.90
2023-04-02T00:28:00.778Z,8.00
2023-04-02T00:30:32.885Z,7.90
2023-04-02T00:33:05.007Z,7.90
2023-04-02T00:35:39.218Z,7.90
2023-04-02T00:38:25.917Z,8.00
2023-04-02T00:41:02.175Z,8.10
2023-04-02T00:43:39.379Z,8.10
2023-04-02T00:46:16.706Z,8.10
2023-04-02T00:49:14.685Z,8.00
2023-04-02T00:51:58.132Z,7.90
2023-04-02T00:54:34.333Z,7.90
2023-04-02T00:57:18.635Z,7.90
2023-04-02T01:00:13.975Z,7.90
2023-04-02T01:03:16.490Z,8.00
2023-04-02T01:05:52.063Z,7.90
2023-04-02T01:08:58.672Z,7.80
2023-04-02T01:11:55.070Z,7.80
2023-04-02T01:14:37.757Z,7.70
2023-04-02T01:17:43.737Z,7.80
2023-04-02T01:20:38.021Z,7.80
2023-04-02T01:23:10.093Z,7.80
2023-04-02T01:25:51.065Z,7.80
2023-04-02T01:28:46.691Z,7.80
2023-04-02T01:31:19.428Z,7.80
2023-04-02T01:33:51.627Z,7.90
2023-04-02T01:36:48.674Z,7.90
2023-04-02T01:39:46.541Z,7.80
2023-04-02T01:42:27.188Z,7.80
2023-04-02T01:45:13.934Z,7.80
2023-04-02T01:47:46.533Z,7.80
2023-04-02T01:50:37.589Z,7.80
2023-04-02T01:53:13.534Z,7.80
2023-04-02T01:55:48.928Z,7.90
2023-04-02T01:58:27.755Z,7.90
2023-04-02T02:01:14.847Z,7.80
2023-04-02T02:03:49.766Z,7.80
2023-04-02T02:06:23.574Z,7.90
2023-04-02T02:09:01.520Z,7.90
2023-04-02T02:11:36.610Z,7.90
2023-04-02T02:14:15.713Z,7.90
2023-04-02T02:16:48.776Z,7.90
2023-04-02T02:19:28.852Z,7.90
2023-04-02T02:22:28.268Z,7.90
2023-04-02T02:25:05.477Z,7.80
2023-04-02T02:27:52.851Z,7.90
2023-04-02T02:30:51.073Z,7.90
2023-04-02T02:33:31.390Z,7.80
2023-04-02T02:36:16.387Z,7.80
2023-04-02T02:38:54.770Z,7.80
2023-04-02T02:41:50.415Z,7.80
2023-04-02T02:44:27.181Z,7.70
2023-04-02T02:47:04.596Z,7.80
2023-04-02T02:50:05.937Z,7.80
2023-04-02T02:52:40.205Z,7.80
2023-04-02T02:55:19.995Z,7.80
2023-04-02T02:58:12.036Z,7.80
2023-04-02T03:00:51.740Z,7.70
2023-04-02T03:03:28.505Z,7.80
2023-04-02T03:06:10.626Z,7.70
2023-04-02T03:09:13.077Z,7.60
2023-04-02T03:11:58.293Z,7.60
2023-04-02T03:14:46.683Z,7.70
2023-04-02T03:17:41.910Z,7.70
2023-04-02T03:20:23.639Z,7.70
2023-04-02T03:23:25.167Z,7.60
2023-04-02T03:26:08.697Z,7.60
2023-04-02T03:28:47.629Z,7.60
2023-04-02T03:31:36.794Z,7.60
2023-04-02T03:34:18.738Z,7.60
2023-04-02T03:37:08.116Z,7.70
2023-04-02T03:39:47.790Z,7.70
2023-04-02T03:42:25.360Z,7.70
2023-04-02T03:45:05.888Z,7.70
2023-04-02T03:48:00.057Z,7.70
2023-04-02T03:50:41.048Z,7.60
2023-04-02T03:53:13.761Z,7.60
2023-04-02T03:55:46.568Z,7.60
2023-04-02T03:58:41.254Z,7.60
2023-04-02T04:01:35.493Z,7.60
2023-04-02T04:04:16.768Z,7.50
2023-04-02T04:06:52.568Z,7.50
2023-04-02T04:09:30.895Z,7.50
2023-04-02T04:12:19.770Z,7.60
2023-04-02T04:15:06.566Z,7.60
2023-04-02T04:18:02.471Z,7.60
2023-04-02T04:20:49.739Z,7.50
2023-04-02T04:23:31.701Z,7.50
2023-04-02T04:26:19.770Z,7.60
2023-04-02T04:29:12.608Z,7.60
2023-04-02T04:31:49.871Z,7.60
2023-04-02T04:34:32.408Z,7.50
2023-04-02T04:37:08.047Z,7.60
2023-04-02T04:39:49.792Z,7.60
2023-04-02T04:42:31.366Z,7.60
2023-04-02T04:45:06.630Z,7.50
2023-04-02T04:47:44.398Z,7.60
2023-04-02T04:50:35.100Z,7.50
2023-04-02T04:53:14.268Z,7.50
2023-04-02T04:55:48.975Z,7.50
2023-04-02T04:58:23.958Z,7.50
2023-04-02T05:01:03.812Z,7.40
2023-04-02T05:03:51.343Z,7.40
2023-04-02T05:06:49.580Z,7.50
2023-04-02T05:09:43.147Z,7.40
2023-04-02T05:12:40.581Z,7.50
2023-04-02T05:15:48.833Z,7.40
2023-04-02T05:18:30.462Z,7.40
2023-04-02T05:21:27.612Z,7.40
2023-04-02T05:24:29.507Z,7.50
2023-04-02T05:27:24.101Z,7.40
2023-04-02T05:30:09.869Z,7.40
2023-04-02T05:32:50.585Z,7.40
2023-04-02T05:35:43.073Z,7.40
2023-04-02T05:38:22.755Z,7.40
2023-04-02T05:41:05.182Z,7.40
2023-04-02T05:43:39.596Z,7.40
2023-04-02T05:46:28.148Z,7.50
2023-04-02T05:49:06.738Z,7.50
2023-04-02T05:51:44.059Z,7.50
2023-04-02T05:54:25.220Z,7.50
2023-04-02T05:57:08.033Z,7.60
2023-04-02T05:59:48.674Z,7.50
2023-04-02T06:02:41.761Z,7.50
2023-04-02T06:05:34.582Z,7.50
2023-04-02T06:08:21.124Z,7.50
2023-04-02T06:11:02.041Z,7.60
2023-04-02T06:13:35.196Z,7.60
2023-04-02T06:16:10.267Z,7.50
2023-04-02T06:18:44.120Z,7.50
2023-04-02T06:21:24.024Z,7.60
2023-04-02T06:24:05.570Z,7.60
2023-04-02T06:27:09.592Z,7.60
2023-04-02T06:29:45.333Z,7.60
2023-04-02T06:32:37.103Z,7.70
2023-04-02T06:35:38.437Z,7.70
2023-04-02T06:38:36.610Z,7.70
2023-04-02T06:41:33.138Z,7.70
2023-04-02T06:44:34.256Z,7.70
2023-04-02T06:47:31.043Z,7.70
2023-04-02T06:50:43.343Z,7.70
2023-04-02T06:53:44.677Z,7.70
2023-04-02T06:56:30.064Z,7.80
2023-04-02T06:59:07.885Z,7.90
2023-04-02T07:03:10.807Z,7.90
2023-04-02T07:06:32.002Z,8.00
2023-04-02T07:10:12.260Z,8.10
2023-04-02T07:12:48.674Z,8.20
2023-04-02T07:15:21.708Z,8.30
2023-04-02T07:17:59.443Z,8.30
2023-04-02T07:20:37.987Z,8.30
2023-04-02T07:23:16.948Z,8.30
2023-04-02T07:25:51.023Z,8.40
2023-04-02T07:28:23.332Z,8.50
2023-04-02T07:30:57.017Z,8.50
2023-04-02T07:33:33.680Z,8.60
2023-04-02T07:36:06.707Z,8.50
2023-04-02T07:38:39.222Z,8.60
2023-04-02T07:41:13.396Z,8.70
2023-04-02T07:44:40.809Z,8.70
2023-04-02T07:47:34.593Z,8.80
2023-04-02T07:50:15.858Z,8.70
2023-04-02T07:52:48.764Z,8.90
2023-04-02T07:55:22.452Z,8.90
2023-04-02T07:58:01.418Z,9.00
2023-04-02T08:00:39.445Z,9.10
2023-04-02T08:03:21.816Z,9.10
2023-04-02T08:05:59.608Z,9.20
2023-04-02T08:08:31.974Z,9.30
2023-04-02T08:11:11.724Z,9.40
2023-04-02T08:14:12.504Z,9.50
2023-04-02T08:16:54.043Z,9.40
2023-04-02T08:19:27.256Z,9.40
2023-04-02T08:21:59.505Z,9.40
2023-04-02T08:24:37.833Z,9.40
2023-04-02T08:27:23.942Z,9.50
2023-04-02T08:29:59.134Z,9.60
2023-04-02T08:32:31.690Z,9.60
2023-04-02T08:35:08.921Z,9.60
2023-04-02T08:37:42.511Z,9.70
2023-04-02T08:40:24.711Z,9.80
2023-04-02T08:43:37.879Z,9.90
2023-04-02T08:46:28.694Z,10.00
2023-04-02T08:49:03.885Z,10.00
2023-04-02T08:51:57.372Z,10.10
2023-04-02T08:54:40.919Z,10.20
2023-04-02T08:57:37.584Z,10.40
2023-04-02T09:00:34.133Z,10.40
2023-04-02T09:03:11.297Z,10.50
2023-04-02T09:05:52.807Z,10.30
2023-04-02T09:08:27.928Z,10.30
2023-04-02T09:11:23.542Z,10.20
2023-04-02T09:13:58.742Z,10.20
2023-04-02T09:16:55.404Z,10.30
2023-04-02T09:19:36.875Z,10.30
2023-04-02T09:22:24.291Z,10.50
2023-04-02T09:24:59.661Z,10.40
2023-04-02T09:27:37.019Z,10.60
2023-04-02T09:30:15.560Z,10.70
2023-04-02T09:32:52.026Z,10.60
2023-04-02T09:35:30.139Z,10.90
2023-04-02T09:38:35.637Z,11.00
2023-04-02T09:41:20.219Z,11.00
2023-04-02T09:44:13.912Z,11.00
2023-04-02T09:47:29.517Z,11.10
2023-04-02T09:50:24.981Z,11.20
2023-04-02T09:52:58.100Z,11.30
2023-04-02T09:55:31.680Z,11.20
2023-04-02T09:58:22.954Z,11.20
2023-04-02T10:00:56.184Z,11.30
2023-04-02T10:03:37.433Z,11.20
2023-04-02T10:06:15.481Z,11.20
2023-04-02T10:08:48.186Z,11.10
2023-04-02T10:11:36.399Z,11.10
2023-04-02T10:14:32.375Z,11.10
2023-04-02T10:17:29.972Z,11.20
2023-04-02T10:20:50.434Z,11.20
2023-04-02T10:23:48.694Z,11.40
2023-04-02T10:26:48.476Z,11.40
2023-04-02T10:29:53.892Z,11.20
2023-04-02T10:32:57.753Z,11.30
2023-04-02T10:35:48.198Z,11.30
2023-04-02T10:38:43.245Z,11.30
2023-04-02T10:41:34.346Z,11.40
2023-04-02T10:44:20.482Z,11.50
2023-04-02T10:47:40.807Z,11.60
2023-04-02T10:50:32.726Z,11.60
2023-04-02T10:53:23.343Z,11.80
2023-04-02T10:56:09.080Z,11.90
2023-04-02T10:59:03.674Z,11.90
2023-04-02T11:01:41.230Z,11.80
2023-04-02T11:04:25.416Z,11.90
2023-04-02T11:07:13.329Z,12.00
2023-04-02T11:09:55.040Z,12.00
2023-04-02T11:12:52.012Z,12.30
2023-04-02T11:15:24.890Z,12.90
2023-04-02T11:17:58.238Z,13.20
2023-04-02T11:21:04.736Z,13.20
2023-04-02T11:23:54.015Z,13.60
2023-04-02T11:26:31.737Z,13.60
2023-04-02T11:29:29.647Z,13.60
2023-04-02T11:32:20.970Z,13.80
2023-04-02T11:35:06.755Z,13.70
2023-04-02T11:37:44.868Z,13.60
2023-04-02T11:40:17.160Z,13.40
2023-04-02T11:42:52.035Z,13.30
2023-04-02T11:45:27.143Z,13.20
2023-04-02T11:48:02.655Z,13.00
2023-04-02T11:50:46.278Z,13.00
2023-04-02T11:53:35.954Z,12.90
2023-04-02T11:56:22.062Z,12.70
2023-04-02T11:59:21.544Z,12.60
2023-04-02T12:02:23.590Z,12.60
2023-04-02T12:05:07.781Z,12.50
2023-04-02T12:07:53.869Z,12.60
2023-04-02T12:10:51.281Z,12.60
2023-04-02T12:13:41.964Z,12.80
2023-04-02T12:16:14.885Z,12.70
2023-04-02T12:18:54.024Z,12.80
2023-04-02T12:21:29.583Z,12.70
2023-04-02T12:24:04.019Z,12.60
2023-04-02T12:26:37.937Z,12.60
2023-04-02T12:29:29.242Z,12.80
2023-04-02T12:32:04.090Z,12.90
2023-04-02T12:34:36.693Z,13.30
2023-04-02T12:37:24.158Z,13.70
2023-04-02T12:39:59.917Z,14.10
2023-04-02T12:42:37.576Z,13.60
2023-04-02T12:45:33.574Z,13.50
2023-04-02T12:48:07.149Z,13.10
2023-04-02T12:50:42.003Z,12.60
2023-04-02T12:53:32.289Z,12.20
2023-04-02T12:56:05.918Z,11.90
2023-04-02T12:58:40.041Z,11.60
2023-04-02T13:01:29.348Z,11.50
2023-04-02T13:04:07.553Z,11.40
2023-04-02T13:06:43.261Z,11.20
2023-04-02T13:09:41.926Z,11.20
2023-04-02T13:12:28.019Z,11.10
2023-04-02T13:15:03.470Z,10.90
2023-04-02T13:17:43.950Z,10.80
2023-04-02T13:20:37.400Z,10.80
2023-04-02T13:23:31.155Z,10.70
2023-04-02T13:26:31.061Z,10.60
2023-04-02T13:29:11.063Z,10.50
2023-04-02T13:31:43.499Z,10.30
2023-04-02T13:34:15.964Z,10.20
2023-04-02T13:36:48.600Z,10.10
2023-04-02T13:39:21.921Z,10.10
2023-04-02T13:41:59.484Z,10.00
2023-04-02T13:44:34.228Z,9.90
2023-04-02T13:47:06.606Z,9.90
2023-04-02T13:49:38.725Z,9.80
2023-04-02T13:52:15.215Z,9.80
2023-04-02T13:54:55.002Z,9.80
2023-04-02T13:57:27.226Z,9.80
2023-04-02T13:59:59.564Z,9.70
2023-04-02T14:02:32.544Z,9.80
2023-04-02T14:05:27.744Z,9.80
2023-04-02T14:08:20.998Z,9.80
2023-04-02T14:11:21.868Z,9.90
2023-04-02T14:14:13.102Z,9.90
2023-04-02T14:16:58.288Z,9.90
2023-04-02T14:19:53.749Z,10.00
2023-04-02T14:23:09.475Z,10.00
2023-04-02T14:25:48.581Z,10.00
2023-04-02T14:28:43.560Z,10.00
2023-04-02T14:31:25.029Z,10.10
2023-04-02T14:34:19.548Z,10.10
2023-04-02T14:37:13.787Z,10.00
2023-04-02T14:40:07.785Z,9.90
2023-04-02T14:43:02.080Z,9.90
2023-04-02T14:45:46.787Z,9.80
2023-04-02T14:48:43.969Z,9.80
2023-04-02T14:51:29.408Z,9.50
2023-04-02T14:54:15.740Z,9.40
2023-04-02T14:56:57.876Z,9.30
2023-04-02T14:59:39.986Z,9.20
2023-04-02T15:02:23.358Z,9.10
2023-04-02T15:05:03.721Z,9.20
2023-04-02T15:07:50.671Z,9.20
2023-04-02T15:10:31.482Z,9.20
2023-04-02T15:13:17.666Z,9.20
2023-04-02T15:15:56.737Z,9.30
2023-04-02T15:18:29.187Z,9.30
2023-04-02T15:21:19.357Z,9.20
2023-04-02T15:24:14.137Z,9.20
2023-04-02T15:27:03.878Z,9.20
2023-04-02T15:29:56.724Z,9.10
2023-04-02T15:32:43.340Z,9.10
2023-04-02T15:35:34.173Z,9.20
2023-04-02T15:38:16.161Z,9.10
2023-04-02T15:41:23.419Z,9.10
2023-04-02T15:44:13.466Z,9.20
2023-04-02T15:47:07.807Z,9.20
2023-04-02T15:50:01.825Z,9.20
2023-04-02T15:52:44.510Z,9.10
2023-04-02T15:55:26.514Z,9.10
2023-04-02T15:58:23.515Z,9.00
2023-04-02T16:01:10.812Z,9.00
2023-04-02T16:04:23.464Z,9.00
2023-04-02T16:07:20.833Z,9.00
2023-04-02T16:10:11.044Z,8.90
2023-04-02T16:12:46.508Z,9.00
2023-04-02T16:15:27.310Z,8.90
2023-04-02T16:18:05.780Z,8.80
2023-04-02T16:20:43.724Z,8.80
2023-04-02T16:23:21.132Z,8.70
2023-04-02T16:26:17.565Z,8.70
2023-04-02T16:29:25.449Z,8.60
2023-04-02T16:32:20.176Z,8.50
2023-04-02T16:35:31.123Z,8.40
2023-04-02T16:38:24.258Z,8.30
2023-04-02T16:41:09.237Z,8.20
2023-04-02T16:44:05.661Z,8.10
2023-04-02T16:47:15.460Z,8.00
2023-04-02T16:49:59.904Z,8.00
2023-04-02T16:53:10.202Z,8.00
2023-04-02T16:56:07.356Z,7.90
2023-04-02T16:58:46.045Z,7.90
2023-04-02T17:01:46.697Z,7.90
2023-04-02T17:04:46.946Z,7.90
2023-04-02T17:07:40.852Z,7.80
2023-04-02T17:10:49.832Z,7.80
2023-04-02T17:13:42.243Z,7.80
2023-04-02T17:16:25.126Z,7.70
2023-04-02T17:18:58.497Z,7.70
2023-04-02T17:21:32.164Z,7.60
2023-04-02T17:24:23.418Z,7.60
2023-04-02T17:27:03.962Z,7.40
2023-04-02T17:29:39.868Z,7.40
2023-04-02T17:32:24.110Z,7.30
2023-04-02T17:34:57.860Z,7.20
2023-04-02T17:37:41.831Z,7.30
2023-04-02T17:40:31.307Z,7.20
2023-04-02T17:43:19.368Z,7.10
2023-04-02T17:45:53.418Z,7.00
2023-04-02T17:49:00.528Z,7.00
2023-04-02T17:51:44.653Z,6.90
2023-04-02T17:54:33.671Z,6.90
2023-04-02T17:57:32.599Z,6.90
2023-04-02T18:00:26.973Z,6.80
2023-04-02T18:03:37.714Z,6.70
2023-04-02T18:06:16.389Z,6.50
2023-04-02T18:09:07.376Z,6.40
2023-04-02T18:11:45.758Z,6.30
2023-04-02T18:14:42.931Z,6.20
2023-04-02T18:17:33.434Z,6.10
2023-04-02T18:20:16.370Z,6.00
2023-04-02T18:23:07.240Z,5.90
2023-04-02T18:26:07.436Z,5.90
2023-04-02T18:29:04.077Z,5.80
2023-04-02T18:31:41.893Z,5.70
2023-04-02T18:34:35.608Z,5.70
2023-04-02T18:37:46.052Z,5.70
2023-04-02T18:40:32.882Z,5.70
2023-04-02T18:43:12.891Z,5.60
2023-04-02T18:46:13.220Z,5.60
2023-04-02T18:48:57.992Z,5.60
2023-04-02T18:51:35.758Z,5.60
2023-04-02T18:54:38.296Z,5.40
2023-04-02T18:57:27.506Z,5.50
2023-04-02T19:00:15.080Z,5.50
2023-04-02T19:02:57.041Z,5.40
2023-04-02T19:05:35.924Z,5.40
2023-04-02T19:08:24.406Z,5.50
2023-04-02T19:11:07.515Z,5.50
2023-04-02T19:13:45.423Z,5.40
2023-04-02T19:16:37.442Z,5.30
2023-04-02T19:19:21.555Z,5.30
2023-04-02T19:22:17.115Z,5.20
2023-04-02T19:25:16.104Z,5.10
2023-04-02T19:27:50.471Z,5.10
2023-04-02T19:30:38.155Z,5.10
2023-04-02T19:33:48.139Z,5.10
2023-04-02T19:36:45.362Z,5.00
2023-04-02T19:39:34.453Z,5.00
2023-04-02T19:42:16.443Z,5.00
2023-04-02T19:44:52.012Z,5.00
2023-04-02T19:47:26.762Z,4.90
2023-04-02T19:49:59.148Z,4.90
2023-04-02T19:52:31.272Z,4.80
2023-04-02T19:55:03.368Z,4.60
2023-04-02T19:57:35.521Z,4.60
2023-04-02T20:00:09.439Z,4.60
2023-04-02T20:02:44.297Z,4.40
2023-04-02T20:05:16.445Z,4.30
2023-04-02T20:07:48.570Z,4.30
2023-04-02T20:10:23.034Z,4.30
2023-04-02T20:12:55.428Z,4.30
2023-04-02T20:15:28.012Z,4.20
2023-04-02T20:18:00.237Z,4.20
2023-04-02T20:20:32.502Z,4.20
2023-04-02T20:23:04.817Z,4.20
2023-04-02T20:25:36.906Z,4.20
2023-04-02T20:28:10.072Z,4.10
2023-04-02T20:30:42.409Z,4.10
2023-04-02T20:33:14.763Z,4.00
2023-04-02T20:35:47.578Z,4.00
2023-04-02T20:38:21.650Z,4.00
2023-04-02T20:40:57.173Z,3.90
2023-04-02T20:43:29.611Z,3.80
2023-04-02T20:46:05.750Z,3.70
2023-04-02T20:48:39.255Z,3.70
2023-04-02T20:51:14.242Z,3.60
2023-04-02T20:53:46.778Z,3.60
2023-04-02T20:56:20.628Z,3.60
2023-04-02T20:58:52.889Z,3.60
2023-04-02T21:01:27.007Z,3.60
2023-04-02T21:04:01.160Z,3.60
2023-04-02T21:06:36.572Z,3.50
2023-04-02T21:09:15.553Z,3.50
2023-04-02T21:11:47.603Z,3.50
2023-04-02T21:14:20.298Z,3.40
2023-04-02T21:16:52.401Z,3.40
2023-04-02T21:19:24.673Z,3.40
2023-04-02T21:21:56.767Z,3.30
2023-04-02T21:24:29.362Z,3.30
2023-04-02T21:27:01.642Z,3.30
2023-04-02T21:29:33.769Z,3.30
2023-04-02T21:32:18.035Z,3.30
2023-04-02T21:34:54.286Z,3.30
2023-04-02T21:37:26.715Z,3.40
2023-04-02T21:39:58.893Z,3.40
2023-04-02T21:42:31.478Z,3.40
2023-04-02T21:45:03.965Z,3.30
2023-04-02T21:47:36.222Z,3.30
2023-04-02T21:50:09.210Z,3.30
2023-04-02T21:52:41.626Z,3.30
2023-04-02T21:55:13.853Z,3.20
2023-04-02T21:57:46.000Z,3.30
2023-04-02T22:00:18.359Z,3.20
2023-04-02T22:02:51.090Z,3.20
2023-04-02T22:05:23.852Z,3.20
2023-04-02T22:07:56.000Z,3.20
2023-04-02T22:10:28.063Z,3.20
2023-04-02T22:13:00.159Z,3.20
2023-04-02T22:15:34.024Z,3.20
2023-04-02T22:18:06.606Z,3.10
2023-04-02T22:20:39.365Z,3.10
2023-04-02T22:23:11.510Z,3.10
2023-04-02T22:25:43.650Z,3.10
2023-04-02T22:28:15.953Z,3.10
2023-04-02T22:30:49.049Z,3.00
2023-04-02T22:33:21.480Z,3.00
2023-04-02T22:35:53.689Z,2.90
2023-04-02T22:38:26.536Z,3.00
2023-04-02T22:41:10.926Z,3.00
2023-04-02T22:43:45.514Z,3.00
2023-04-02T22:46:18.923Z,3.00
2023-04-02T22:48:51.494Z,3.00
2023-04-02T22:51:25.626Z,3.00
2023-04-02T22:53:58.224Z,2.90
2023-04-02T22:56:32.411Z,2.90
2023-04-02T22:59:04.885Z,2.90
2023-04-02T23:01:37.265Z,2.90
2023-04-02T23:04:09.416Z,2.90
2023-04-02T23:06:41.564Z,2.90
2023-04-02T23:09:13.718Z,2.90
2023-04-02T23:11:45.985Z,3.00
2023-04-02T23:14:18.074Z,3.00
2023-04-02T23:16:50.172Z,3.00
2023-04-02T23:19:22.378Z,3.00
2023-04-02T23:21:54.425Z,3.10
2023-04-02T23:24:26.485Z,3.10
2023-04-02T23:26:58.544Z,3.10
2023-04-02T23:29:31.650Z,3.00
2023-04-02T23:32:03.787Z,3.00
2023-04-02T23:34:36.193Z,3.00
2023-04-02T23:37:08.497Z,3.00
2023-04-02T23:39:41.004Z,3.10
2023-04-02T23:42:13.171Z,3.00
2023-04-02T23:44:46.058Z,3.00
2023-04-02T23:47:18.153Z,3.00
2023-04-02T23:49:50.289Z,3.00
2023-04-02T23:52:22.620Z,3.00
2023-04-02T23:54:54.721Z,3.10
2023-04-02T23:57:27.089Z,3.10
2023-04-02T23:59:59.262Z,3.10
